sensor_id;sensor_type;location;lat;lon;timestamp;P1;durP1;ratioP1;P2;durP2;ratioP2
37131;SDS011;23035;50.032;21.978;2023-04-01T00:02:16;15.68;;;9.52;;
37131;SDS011;23035;50.032;21.978;2023-04-01T00:07:22;13.43;;;8.40;;
37131;SDS011;23035;50.032;21.978;2023-04-01T00:12:32;14.52;;;8.68;;
37131;SDS011;23035;50.032;21.978;2023-04-01T00:17:36;13.25;;;8.85;;
37131;SDS011;23035;50.032;21.978;2023-04-01T00:22:42;14.60;;;9.20;;
37131;SDS011;23035;50.032;21.978;2023-04-01T00:32:51;13.65;;;9.65;;
37131;SDS011;23035;50.032;21.978;2023-04-01T00:37:57;15.93;;;8.73;;
37131;SDS011;23035;50.032;21.978;2023-04-01T00:48:07;12.55;;;8.95;;
37131;SDS011;23035;50.032;21.978;2023-04-01T00:53:15;13.23;;;8.35;;
37131;SDS011;23035;50.032;21.978;2023-04-01T00:58:23;13.30;;;8.50;;
37131;SDS011;23035;50.032;21.978;2023-04-01T01:03:30;12.43;;;8.80;;
37131;SDS011;23035;50.032;21.978;2023-04-01T01:08:39;13.50;;;8.57;;
37131;SDS011;23035;50.032;21.978;2023-04-01T01:13:52;12.88;;;9.52;;
37131;SDS011;23035;50.032;21.978;2023-04-01T01:19:05;12.88;;;8.95;;
37131;SDS011;23035;50.032;21.978;2023-04-01T01:35:31;14.50;;;8.82;;
37131;SDS011;23035;50.032;21.978;2023-04-01T01:45:54;13.65;;;8.93;;
37131;SDS011;23035;50.032;21.978;2023-04-01T01:51:03;13.00;;;8.38;;
37131;SDS011;23035;50.032;21.978;2023-04-01T01:56:09;13.73;;;8.85;;
37131;SDS011;23035;50.032;21.978;2023-04-01T02:01:18;12.90;;;8.60;;
37131;SDS011;23035;50.032;21.978;2023-04-01T02:06:32;12.05;;;7.95;;
37131;SDS011;23035;50.032;21.978;2023-04-01T02:11:41;9.98;;;7.38;;
37131;SDS011;23035;50.032;21.978;2023-04-01T02:16:51;17.23;;;8.82;;
37131;SDS011;23035;50.032;21.978;2023-04-01T02:22:02;11.65;;;7.07;;
37131;SDS011;23035;50.032;21.978;2023-04-01T02:27:09;10.95;;;7.50;;
37131;SDS011;23035;50.032;21.978;2023-04-01T02:32:14;9.90;;;7.43;;
37131;SDS011;23035;50.032;21.978;2023-04-01T02:37:21;9.20;;;7.10;;
37131;SDS011;23035;50.032;21.978;2023-04-01T02:42:27;10.98;;;7.47;;
37131;SDS011;23035;50.032;21.978;2023-04-01T02:47:31;12.15;;;8.35;;
37131;SDS011;23035;50.032;21.978;2023-04-01T02:52:37;13.98;;;8.27;;
37131;SDS011;23035;50.032;21.978;2023-04-01T02:57:42;11.43;;;7.75;;
37131;SDS011;23035;50.032;21.978;2023-04-01T03:02:47;11.25;;;7.57;;
37131;SDS011;23035;50.032;21.978;2023-04-01T03:07:53;13.85;;;8.45;;
37131;SDS011;23035;50.032;21.978;2023-04-01T03:12:58;10.82;;;7.90;;
37131;SDS011;23035;50.032;21.978;2023-04-01T03:18:02;11.70;;;7.25;;
37131;SDS011;23035;50.032;21.978;2023-04-01T03:23:08;12.50;;;7.57;;
37131;SDS011;23035;50.032;21.978;2023-04-01T03:28:13;12.80;;;8.20;;
37131;SDS011;23035;50.032;21.978;2023-04-01T03:33:18;11.98;;;7.82;;
37131;SDS011;23035;50.032;21.978;2023-04-01T03:38:24;10.93;;;7.30;;
37131;SDS011;23035;50.032;21.978;2023-04-01T03:43:28;11.98;;;8.52;;
37131;SDS011;23035;50.032;21.978;2023-04-01T03:48:32;10.23;;;7.40;;
37131;SDS011;23035;50.032;21.978;2023-04-01T03:53:38;12.23;;;7.38;;
37131;SDS011;23035;50.032;21.978;2023-04-01T03:58:42;10.93;;;7.03;;
37131;SDS011;23035;50.032;21.978;2023-04-01T04:03:47;9.93;;;7.27;;
37131;SDS011;23035;50.032;21.978;2023-04-01T04:08:54;11.30;;;7.27;;
37131;SDS011;23035;50.032;21.978;2023-04-01T04:13:58;9.05;;;5.90;;
37131;SDS011;23035;50.032;21.978;2023-04-01T04:19:03;9.88;;;6.45;;
37131;SDS011;23035;50.032;21.978;2023-04-01T04:24:09;14.20;;;6.53;;
37131;SDS011;23035;50.032;21.978;2023-04-01T04:29:32;7.60;;;5.38;;
37131;SDS011;23035;50.032;21.978;2023-04-01T04:34:37;10.50;;;6.32;;
37131;SDS011;23035;50.032;21.978;2023-04-01T04:39:44;9.40;;;5.80;;
37131;SDS011;23035;50.032;21.978;2023-04-01T04:44:48;7.90;;;4.80;;
37131;SDS011;23035;50.032;21.978;2023-04-01T04:49:52;8.00;;;4.60;;
37131;SDS011;23035;50.032;21.978;2023-04-01T04:54:58;5.97;;;4.07;;
37131;SDS011;23035;50.032;21.978;2023-04-01T05:05:21;6.43;;;3.42;;
37131;SDS011;23035;50.032;21.978;2023-04-01T05:10:27;8.50;;;3.70;;
37131;SDS011;23035;50.032;21.978;2023-04-01T05:15:31;8.35;;;3.60;;
37131;SDS011;23035;50.032;21.978;2023-04-01T05:20:37;6.88;;;3.25;;
37131;SDS011;23035;50.032;21.978;2023-04-01T05:25:43;7.03;;;2.95;;
37131;SDS011;23035;50.032;21.978;2023-04-01T05:30:48;6.85;;;3.30;;
37131;SDS011;23035;50.032;21.978;2023-04-01T05:36:05;8.95;;;3.45;;
37131;SDS011;23035;50.032;21.978;2023-04-01T05:41:11;5.72;;;2.63;;
37131;SDS011;23035;50.032;21.978;2023-04-01T05:46:19;7.03;;;3.15;;
37131;SDS011;23035;50.032;21.978;2023-04-01T05:51:30;12.00;;;4.15;;
37131;SDS011;23035;50.032;21.978;2023-04-01T05:56:35;6.07;;;3.03;;
37131;SDS011;23035;50.032;21.978;2023-04-01T06:01:40;5.50;;;2.55;;
37131;SDS011;23035;50.032;21.978;2023-04-01T06:06:44;6.10;;;2.72;;
37131;SDS011;23035;50.032;21.978;2023-04-01T06:11:59;6.78;;;3.00;;
37131;SDS011;23035;50.032;21.978;2023-04-01T06:17:37;5.05;;;2.65;;
37131;SDS011;23035;50.032;21.978;2023-04-01T06:22:59;6.68;;;3.03;;
37131;SDS011;23035;50.032;21.978;2023-04-01T06:33:52;11.03;;;3.10;;
37131;SDS011;23035;50.032;21.978;2023-04-01T06:45:02;5.50;;;3.17;;
37131;SDS011;23035;50.032;21.978;2023-04-01T06:50:36;6.43;;;2.55;;
37131;SDS011;23035;50.032;21.978;2023-04-01T06:56:07;6.35;;;2.95;;
37131;SDS011;23035;50.032;21.978;2023-04-01T07:01:29;5.95;;;3.22;;
37131;SDS011;23035;50.032;21.978;2023-04-01T07:06:39;7.07;;;2.50;;
37131;SDS011;23035;50.032;21.978;2023-04-01T07:11:48;6.13;;;3.03;;
37131;SDS011;23035;50.032;21.978;2023-04-01T07:17:19;6.68;;;2.70;;
37131;SDS011;23035;50.032;21.978;2023-04-01T07:22:27;7.47;;;3.03;;
37131;SDS011;23035;50.032;21.978;2023-04-01T07:27:49;7.63;;;2.90;;
37131;SDS011;23035;50.032;21.978;2023-04-01T07:32:58;7.53;;;3.30;;
37131;SDS011;23035;50.032;21.978;2023-04-01T07:38:12;9.50;;;3.50;;
37131;SDS011;23035;50.032;21.978;2023-04-01T07:43:33;13.18;;;6.75;;
37131;SDS011;23035;50.032;21.978;2023-04-01T07:49:06;9.30;;;3.45;;
37131;SDS011;23035;50.032;21.978;2023-04-01T07:54:17;12.90;;;3.88;;
37131;SDS011;23035;50.032;21.978;2023-04-01T07:59:27;8.38;;;4.50;;
37131;SDS011;23035;50.032;21.978;2023-04-01T08:04:53;8.73;;;4.13;;
37131;SDS011;23035;50.032;21.978;2023-04-01T08:10:08;9.13;;;3.35;;
37131;SDS011;23035;50.032;21.978;2023-04-01T08:15:40;5.50;;;2.90;;
37131;SDS011;23035;50.032;21.978;2023-04-01T08:21:10;6.97;;;3.15;;
37131;SDS011;23035;50.032;21.978;2023-04-01T08:26:19;8.23;;;2.90;;
37131;SDS011;23035;50.032;21.978;2023-04-01T08:31:35;6.78;;;3.60;;
37131;SDS011;23035;50.032;21.978;2023-04-01T08:36:45;7.13;;;3.25;;
37131;SDS011;23035;50.032;21.978;2023-04-01T08:47:50;8.43;;;3.47;;
37131;SDS011;23035;50.032;21.978;2023-04-01T08:53:09;7.63;;;3.10;;
37131;SDS011;23035;50.032;21.978;2023-04-01T09:04:14;7.88;;;3.60;;
37131;SDS011;23035;50.032;21.978;2023-04-01T09:15:34;7.20;;;3.30;;
37131;SDS011;23035;50.032;21.978;2023-04-01T09:21:22;7.50;;;3.42;;
37131;SDS011;23035;50.032;21.978;2023-04-01T09:26:40;13.15;;;5.93;;
37131;SDS011;23035;50.032;21.978;2023-04-01T09:32:03;5.78;;;2.92;;
37131;SDS011;23035;50.032;21.978;2023-04-01T09:37:33;15.00;;;5.80;;
37131;SDS011;23035;50.032;21.978;2023-04-01T09:42:49;6.43;;;3.80;;
37131;SDS011;23035;50.032;21.978;2023-04-01T09:48:17;11.07;;;3.85;;
37131;SDS011;23035;50.032;21.978;2023-04-01T09:53:34;13.27;;;4.72;;
37131;SDS011;23035;50.032;21.978;2023-04-01T09:59:01;6.97;;;3.38;;
37131;SDS011;23035;50.032;21.978;2023-04-01T10:04:54;6.60;;;3.50;;
37131;SDS011;23035;50.032;21.978;2023-04-01T10:22:06;4.63;;;2.85;;
37131;SDS011;23035;50.032;21.978;2023-04-01T10:27:47;7.03;;;4.35;;
37131;SDS011;23035;50.032;21.978;2023-04-01T10:33:53;7.90;;;3.10;;
37131;SDS011;23035;50.032;21.978;2023-04-01T10:39:32;10.15;;;3.88;;
37131;SDS011;23035;50.032;21.978;2023-04-01T10:51:00;9.38;;;3.63;;
37131;SDS011;23035;50.032;21.978;2023-04-01T11:02:12;8.30;;;3.63;;
37131;SDS011;23035;50.032;21.978;2023-04-01T11:14:23;6.65;;;4.13;;
37131;SDS011;23035;50.032;21.978;2023-04-01T11:19:54;6.60;;;3.45;;
37131;SDS011;23035;50.032;21.978;2023-04-01T11:31:31;4.43;;;2.42;;
37131;SDS011;23035;50.032;21.978;2023-04-01T11:36:46;4.28;;;2.00;;
37131;SDS011;23035;50.032;21.978;2023-04-01T11:42:07;5.00;;;2.85;;
37131;SDS011;23035;50.032;21.978;2023-04-01T11:53:13;5.65;;;2.72;;
37131;SDS011;23035;50.032;21.978;2023-04-01T11:58:25;6.88;;;3.25;;
37131;SDS011;23035;50.032;21.978;2023-04-01T12:03:57;6.15;;;2.80;;
37131;SDS011;23035;50.032;21.978;2023-04-01T12:09:16;5.25;;;3.20;;
37131;SDS011;23035;50.032;21.978;2023-04-01T12:14:30;5.57;;;2.97;;
37131;SDS011;23035;50.032;21.978;2023-04-01T12:19:44;8.10;;;3.53;;
37131;SDS011;23035;50.032;21.978;2023-04-01T12:24:56;4.93;;;3.08;;
37131;SDS011;23035;50.032;21.978;2023-04-01T12:30:18;11.35;;;3.55;;
37131;SDS011;23035;50.032;21.978;2023-04-01T12:40:51;5.15;;;3.25;;
37131;SDS011;23035;50.032;21.978;2023-04-01T12:46:09;7.47;;;3.30;;
37131;SDS011;23035;50.032;21.978;2023-04-01T12:51:23;5.30;;;2.80;;
37131;SDS011;23035;50.032;21.978;2023-04-01T12:56:40;5.45;;;2.55;;
37131;SDS011;23035;50.032;21.978;2023-04-01T13:01:55;7.28;;;2.90;;
37131;SDS011;23035;50.032;21.978;2023-04-01T13:07:16;17.05;;;8.07;;
37131;SDS011;23035;50.032;21.978;2023-04-01T13:12:57;11.45;;;3.25;;
37131;SDS011;23035;50.032;21.978;2023-04-01T13:18:14;6.22;;;3.25;;
37131;SDS011;23035;50.032;21.978;2023-04-01T13:23:29;8.30;;;4.32;;
37131;SDS011;23035;50.032;21.978;2023-04-01T13:28:50;6.22;;;3.38;;
37131;SDS011;23035;50.032;21.978;2023-04-01T13:34:01;13.48;;;6.30;;
37131;SDS011;23035;50.032;21.978;2023-04-01T13:39:29;12.38;;;5.50;;
37131;SDS011;23035;50.032;21.978;2023-04-01T13:44:49;6.57;;;3.40;;
37131;SDS011;23035;50.032;21.978;2023-04-01T13:55:54;8.82;;;5.18;;
37131;SDS011;23035;50.032;21.978;2023-04-01T14:01:08;8.90;;;4.47;;
37131;SDS011;23035;50.032;21.978;2023-04-01T14:06:23;21.63;;;8.50;;
37131;SDS011;23035;50.032;21.978;2023-04-01T14:11:37;6.57;;;3.72;;
37131;SDS011;23035;50.032;21.978;2023-04-01T14:22:23;10.77;;;4.60;;
37131;SDS011;23035;50.032;21.978;2023-04-01T14:27:36;8.57;;;4.70;;
37131;SDS011;23035;50.032;21.978;2023-04-01T14:32:51;7.75;;;3.95;;
37131;SDS011;23035;50.032;21.978;2023-04-01T14:38:11;7.63;;;4.30;;
37131;SDS011;23035;50.032;21.978;2023-04-01T14:43:37;10.18;;;4.40;;
37131;SDS011;23035;50.032;21.978;2023-04-01T14:49:04;7.32;;;3.58;;
37131;SDS011;23035;50.032;21.978;2023-04-01T14:54:19;7.38;;;3.90;;
37131;SDS011;23035;50.032;21.978;2023-04-01T14:59:35;8.32;;;3.13;;
37131;SDS011;23035;50.032;21.978;2023-04-01T15:04:47;7.70;;;3.63;;
37131;SDS011;23035;50.032;21.978;2023-04-01T15:09:58;8.07;;;3.78;;
37131;SDS011;23035;50.032;21.978;2023-04-01T15:15:16;6.60;;;3.85;;
37131;SDS011;23035;50.032;21.978;2023-04-01T15:26:12;8.20;;;4.40;;
37131;SDS011;23035;50.032;21.978;2023-04-01T15:31:27;9.27;;;4.40;;
37131;SDS011;23035;50.032;21.978;2023-04-01T15:36:39;7.72;;;4.53;;
37131;SDS011;23035;50.032;21.978;2023-04-01T15:42:04;8.45;;;4.10;;
37131;SDS011;23035;50.032;21.978;2023-04-01T15:47:33;7.63;;;4.00;;
37131;SDS011;23035;50.032;21.978;2023-04-01T15:52:42;10.07;;;4.07;;
37131;SDS011;23035;50.032;21.978;2023-04-01T15:58:02;12.75;;;4.68;;
37131;SDS011;23035;50.032;21.978;2023-04-01T16:03:32;9.00;;;4.75;;
37131;SDS011;23035;50.032;21.978;2023-04-01T16:08:46;10.27;;;4.93;;
37131;SDS011;23035;50.032;21.978;2023-04-01T16:14:07;13.30;;;5.10;;
37131;SDS011;23035;50.032;21.978;2023-04-01T16:24:48;9.80;;;5.27;;
37131;SDS011;23035;50.032;21.978;2023-04-01T16:30:00;12.23;;;5.65;;
37131;SDS011;23035;50.032;21.978;2023-04-01T16:35:25;7.20;;;4.13;;
37131;SDS011;23035;50.032;21.978;2023-04-01T16:40:43;12.32;;;5.82;;
37131;SDS011;23035;50.032;21.978;2023-04-01T16:51:23;7.93;;;4.50;;
37131;SDS011;23035;50.032;21.978;2023-04-01T17:01:40;12.07;;;5.10;;
37131;SDS011;23035;50.032;21.978;2023-04-01T17:06:57;11.05;;;5.50;;
37131;SDS011;23035;50.032;21.978;2023-04-01T17:12:11;14.97;;;7.00;;
37131;SDS011;23035;50.032;21.978;2023-04-01T17:17:26;14.40;;;6.53;;
37131;SDS011;23035;50.032;21.978;2023-04-01T17:22:39;11.68;;;6.43;;
37131;SDS011;23035;50.032;21.978;2023-04-01T17:27:51;14.63;;;6.30;;
37131;SDS011;23035;50.032;21.978;2023-04-01T17:33:10;12.23;;;6.30;;
37131;SDS011;23035;50.032;21.978;2023-04-01T17:38:34;15.55;;;7.28;;
37131;SDS011;23035;50.032;21.978;2023-04-01T17:43:56;17.08;;;8.25;;
37131;SDS011;23035;50.032;21.978;2023-04-01T17:49:14;22.13;;;9.05;;
37131;SDS011;23035;50.032;21.978;2023-04-01T17:54:32;13.30;;;6.88;;
37131;SDS011;23035;50.032;21.978;2023-04-01T17:59:48;15.20;;;7.25;;
37131;SDS011;23035;50.032;21.978;2023-04-01T18:10:25;14.00;;;7.40;;
37131;SDS011;23035;50.032;21.978;2023-04-01T18:15:36;17.70;;;7.82;;
37131;SDS011;23035;50.032;21.978;2023-04-01T18:20:51;88.85;;;33.80;;
37131;SDS011;23035;50.032;21.978;2023-04-01T18:26:04;40.35;;;15.73;;
37131;SDS011;23035;50.032;21.978;2023-04-01T18:31:14;10.75;;;6.00;;
37131;SDS011;23035;50.032;21.978;2023-04-01T18:36:21;14.02;;;7.82;;
37131;SDS011;23035;50.032;21.978;2023-04-01T18:41:40;13.57;;;8.07;;
37131;SDS011;23035;50.032;21.978;2023-04-01T18:46:59;22.98;;;13.85;;
37131;SDS011;23035;50.032;21.978;2023-04-01T18:52:13;23.92;;;14.90;;
37131;SDS011;23035;50.032;21.978;2023-04-01T18:57:37;23.67;;;15.13;;
37131;SDS011;23035;50.032;21.978;2023-04-01T19:02:57;40.80;;;21.90;;
37131;SDS011;23035;50.032;21.978;2023-04-01T19:08:14;24.40;;;12.75;;
37131;SDS011;23035;50.032;21.978;2023-04-01T19:13:25;16.45;;;9.70;;
37131;SDS011;23035;50.032;21.978;2023-04-01T19:18:44;14.95;;;8.50;;
37131;SDS011;23035;50.032;21.978;2023-04-01T19:24:02;12.80;;;7.82;;
37131;SDS011;23035;50.032;21.978;2023-04-01T19:29:29;15.00;;;8.95;;
37131;SDS011;23035;50.032;21.978;2023-04-01T19:34:48;15.77;;;8.05;;
37131;SDS011;23035;50.032;21.978;2023-04-01T19:40:01;16.45;;;8.43;;
37131;SDS011;23035;50.032;21.978;2023-04-01T19:45:23;15.15;;;8.35;;
37131;SDS011;23035;50.032;21.978;2023-04-01T19:50:38;16.33;;;10.13;;
37131;SDS011;23035;50.032;21.978;2023-04-01T19:55:50;28.75;;;15.07;;
37131;SDS011;23035;50.032;21.978;2023-04-01T20:01:04;20.65;;;11.70;;
37131;SDS011;23035;50.032;21.978;2023-04-01T20:06:19;17.92;;;9.88;;
37131;SDS011;23035;50.032;21.978;2023-04-01T20:11:34;15.20;;;6.78;;
37131;SDS011;23035;50.032;21.978;2023-04-01T20:16:53;29.73;;;16.05;;
37131;SDS011;23035;50.032;21.978;2023-04-01T20:22:04;18.20;;;8.85;;
37131;SDS011;23035;50.032;21.978;2023-04-01T20:27:15;15.32;;;8.38;;
37131;SDS011;23035;50.032;21.978;2023-04-01T20:37:50;10.97;;;6.67;;
37131;SDS011;23035;50.032;21.978;2023-04-01T20:43:15;11.32;;;7.13;;
37131;SDS011;23035;50.032;21.978;2023-04-01T20:54:17;13.93;;;7.03;;
37131;SDS011;23035;50.032;21.978;2023-04-01T20:59:41;16.42;;;7.70;;
37131;SDS011;23035;50.032;21.978;2023-04-01T21:10:49;11.33;;;6.80;;
37131;SDS011;23035;50.032;21.978;2023-04-01T21:16:08;10.00;;;6.10;;
37131;SDS011;23035;50.032;21.978;2023-04-01T21:27:12;15.05;;;7.57;;
37131;SDS011;23035;50.032;21.978;2023-04-01T21:32:34;15.82;;;7.00;;
37131;SDS011;23035;50.032;21.978;2023-04-01T21:37:53;15.43;;;7.88;;
37131;SDS011;23035;50.032;21.978;2023-04-01T21:43:07;15.10;;;8.10;;
37131;SDS011;23035;50.032;21.978;2023-04-01T21:48:33;15.07;;;8.30;;
37131;SDS011;23035;50.032;21.978;2023-04-01T21:54:02;13.18;;;7.38;;
37131;SDS011;23035;50.032;21.978;2023-04-01T22:05:03;13.77;;;9.13;;
37131;SDS011;23035;50.032;21.978;2023-04-01T22:10:14;17.75;;;8.73;;
37131;SDS011;23035;50.032;21.978;2023-04-01T22:15:40;13.93;;;8.45;;
37131;SDS011;23035;50.032;21.978;2023-04-01T22:20:59;13.25;;;8.23;;
37131;SDS011;23035;50.032;21.978;2023-04-01T22:26:12;18.70;;;10.13;;
37131;SDS011;23035;50.032;21.978;2023-04-01T22:31:24;17.38;;;9.48;;
37131;SDS011;23035;50.032;21.978;2023-04-01T22:36:35;16.73;;;9.60;;
37131;SDS011;23035;50.032;21.978;2023-04-01T22:41:51;17.30;;;9.02;;
37131;SDS011;23035;50.032;21.978;2023-04-01T22:47:05;14.60;;;9.57;;
37131;SDS011;23035;50.032;21.978;2023-04-01T22:52:20;18.65;;;10.43;;
37131;SDS011;23035;50.032;21.978;2023-04-01T22:57:35;20.75;;;10.88;;
37131;SDS011;23035;50.032;21.978;2023-04-01T23:02:59;22.40;;;12.93;;
37131;SDS011;23035;50.032;21.978;2023-04-01T23:08:25;21.20;;;13.07;;
37131;SDS011;23035;50.032;21.978;2023-04-01T23:13:49;16.65;;;9.95;;
37131;SDS011;23035;50.032;21.978;2023-04-01T23:18:57;16.98;;;11.07;;
37131;SDS011;23035;50.032;21.978;2023-04-01T23:24:11;17.90;;;9.38;;
37131;SDS011;23035;50.032;21.978;2023-04-01T23:29:24;16.13;;;10.13;;
37131;SDS011;23035;50.032;21.978;2023-04-01T23:34:30;15.48;;;10.43;;
37131;SDS011;23035;50.032;21.978;2023-04-01T23:39:36;17.87;;;10.23;;
37131;SDS011;23035;50.032;21.978;2023-04-01T23:44:43;17.58;;;10.07;;
37131;SDS011;23035;50.032;21.978;2023-04-01T23:49:48;12.80;;;8.82;;
37131;SDS011;23035;50.032;21.978;2023-04-01T23:54:57;18.23;;;11.00;;
